createdAt,value
2018-04-28T00:00:40.079Z,44.80
2018-04-28T00:01:41.146Z,44.90
2018-04-28T00:02:42.226Z,45.10
2018-04-28T00:03:43.350Z,44.80
2018-04-28T00:04:44.438Z,45.30
2018-04-28T00:05:45.515Z,45.10
2018-04-28T00:06:46.602Z,45.30
2018-04-28T00:07:48.413Z,45.20
2018-04-28T00:08:49.495Z,45.20
2018-04-28T00:09:50.562Z,45.40
2018-04-28T00:10:51.650Z,45.20
2018-04-28T00:11:52.722Z,45.20
2018-04-28T00:12:53.806Z,45.30
2018-04-28T00:13:54.879Z,45.30
2018-04-28T00:14:55.951Z,45.40
2018-04-28T00:15:57.018Z,45.40
2018-04-28T00:16:58.088Z,45.20
2018-04-28T00:17:59.163Z,45.40
2018-04-28T00:19:01.759Z,45.50
2018-04-28T00:20:03.788Z,45.40
2018-04-28T00:21:05.602Z,45.20
2018-04-28T00:22:11.696Z,45.30
2018-04-28T00:23:13.519Z,45.20
2018-04-28T00:24:14.591Z,45.30
2018-04-28T00:25:15.668Z,45.50
2018-04-28T00:26:16.742Z,45.50
2018-04-28T00:27:26.580Z,46.10
2018-04-28T00:28:40.359Z,46.10
2018-04-28T00:29:41.432Z,46.00
2018-04-28T00:30:44.263Z,45.80
2018-04-28T00:33:09.856Z,46.40
2018-04-28T00:34:10.938Z,46.20
2018-04-28T00:35:12.011Z,46.70
2018-04-28T00:36:13.087Z,46.70
2018-04-28T00:37:16.007Z,46.70
2018-04-28T00:38:17.105Z,46.70
2018-04-28T00:39:18.170Z,47.00
2018-04-28T00:40:24.742Z,47.00
2018-04-28T00:41:26.623Z,47.00
2018-04-28T00:42:30.599Z,46.80
2018-04-28T00:43:31.674Z,46.80
2018-04-28T00:44:32.746Z,47.00
2018-04-28T00:45:33.818Z,46.80
2018-04-28T00:46:34.883Z,46.60
2018-04-28T00:47:35.966Z,46.60
2018-04-28T00:48:42.963Z,46.60
2018-04-28T00:49:52.857Z,46.80
2018-04-28T00:50:53.935Z,47.10
2018-04-28T00:51:55.024Z,47.30
2018-04-28T00:52:56.103Z,47.90
2018-04-28T00:54:06.095Z,47.80
2018-04-28T00:55:11.047Z,48.80
2018-04-28T00:56:14.026Z,48.60
2018-04-28T00:57:15.923Z,47.70
2018-04-28T00:59:50.867Z,47.70
2018-04-28T01:00:59.879Z,47.30
2018-04-28T01:02:03.410Z,47.40
2018-04-28T01:03:05.438Z,47.30
2018-04-28T01:04:07.522Z,47.30
2018-04-28T01:05:08.616Z,47.60
2018-04-28T01:06:09.703Z,47.80
2018-04-28T01:07:13.768Z,48.00
2018-04-28T01:08:14.838Z,48.40
2018-04-28T01:09:16.680Z,48.50
2018-04-28T01:10:17.747Z,48.50
2018-04-28T01:11:18.834Z,48.60
2018-04-28T01:12:19.912Z,48.70
2018-04-28T01:13:20.987Z,48.20
2018-04-28T01:14:41.942Z,48.20
2018-04-28T01:15:43.010Z,48.10
2018-04-28T01:16:45.984Z,48.80
2018-04-28T01:17:53.047Z,48.80
2018-04-28T01:18:54.851Z,48.90
2018-04-28T01:19:58.755Z,48.90
2018-04-28T01:21:00.758Z,48.80
2018-04-28T01:22:01.845Z,48.80
2018-04-28T01:24:49.847Z,48.60
2018-04-28T01:25:50.911Z,48.60
2018-04-28T01:27:10.866Z,48.70
2018-04-28T01:28:13.664Z,48.70
2018-04-28T01:29:14.730Z,48.80
2018-04-28T01:31:13.620Z,48.30
2018-04-28T01:32:14.701Z,48.70
2018-04-28T01:34:46.182Z,49.10
2018-04-28T01:37:33.714Z,48.80
2018-04-28T01:38:36.348Z,49.10
2018-04-28T01:39:38.399Z,49.20
2018-04-28T01:40:40.271Z,49.40
2018-04-28T01:41:53.568Z,49.00
2018-04-28T01:43:25.515Z,48.90
2018-04-28T01:44:35.790Z,49.10
2018-04-28T01:45:49.142Z,49.20
2018-04-28T01:46:51.814Z,49.10
2018-04-28T01:49:48.263Z,49.10
2018-04-28T01:50:59.723Z,49.10
2018-04-28T01:52:04.583Z,49.10
2018-04-28T01:53:05.646Z,49.20
2018-04-28T01:55:36.019Z,49.40
2018-04-28T01:56:40.039Z,49.40
2018-04-28T01:57:47.835Z,49.40
2018-04-28T01:58:49.821Z,49.40
2018-04-28T01:59:54.767Z,49.70
2018-04-28T02:02:54.063Z,49.70
2018-04-28T02:03:56.691Z,50.30
2018-04-28T02:04:57.766Z,50.30
2018-04-28T02:06:14.523Z,50.70
2018-04-28T02:07:15.613Z,50.70
2018-04-28T02:08:16.697Z,50.50
2018-04-28T02:09:20.554Z,50.20
2018-04-28T02:10:22.459Z,50.20
2018-04-28T02:11:27.363Z,50.00
2018-04-28T02:12:38.438Z,50.00
2018-04-28T02:13:44.329Z,50.10
2018-04-28T02:14:47.099Z,50.00
2018-04-28T02:15:48.179Z,50.10
2018-04-28T02:16:52.019Z,50.20
2018-04-28T02:17:55.700Z,50.70
2018-04-28T02:19:06.492Z,50.70
2018-04-28T02:20:08.454Z,50.70
2018-04-28T02:21:21.708Z,50.60
2018-04-28T02:22:32.782Z,50.30
2018-04-28T02:23:33.867Z,50.40
2018-04-28T02:24:45.752Z,50.40
2018-04-28T02:25:47.818Z,50.40
2018-04-28T02:26:49.735Z,50.70
2018-04-28T02:29:30.759Z,50.50
2018-04-28T02:30:37.566Z,50.70
2018-04-28T02:31:45.571Z,50.70
2018-04-28T02:32:49.463Z,50.70
2018-04-28T02:33:52.219Z,51.00
2018-04-28T02:34:53.301Z,51.00
2018-04-28T02:35:54.377Z,51.20
2018-04-28T02:38:27.688Z,50.50
2018-04-28T02:39:28.754Z,50.70
2018-04-28T02:40:31.724Z,50.70
2018-04-28T02:41:46.408Z,50.20
2018-04-28T02:42:52.328Z,50.20
2018-04-28T02:43:59.203Z,50.30
2018-04-28T02:45:01.118Z,50.70
2018-04-28T02:46:05.781Z,50.70
2018-04-28T02:47:07.699Z,50.60
2018-04-28T02:48:10.741Z,50.80
2018-04-28T02:49:11.821Z,50.70
2018-04-28T02:50:18.759Z,50.70
2018-04-28T02:51:20.626Z,50.70
2018-04-28T02:52:34.031Z,50.70
2018-04-28T02:53:43.658Z,50.70
2018-04-28T02:54:48.679Z,50.70
2018-04-28T02:55:52.695Z,50.60
2018-04-28T02:56:53.772Z,51.30
2018-04-28T02:58:00.622Z,51.10
2018-04-28T02:59:07.432Z,51.10
2018-04-28T03:00:14.368Z,51.30
2018-04-28T03:02:51.904Z,52.40
2018-04-28T03:03:53.954Z,52.50
2018-04-28T03:04:55.944Z,51.80
2018-04-28T03:06:07.972Z,51.90
2018-04-28T03:08:44.143Z,51.50
2018-04-28T03:09:45.131Z,51.30
2018-04-28T03:10:52.134Z,51.20
2018-04-28T03:11:57.099Z,51.20
2018-04-28T03:12:58.106Z,51.30
2018-04-28T03:13:59.868Z,52.00
2018-04-28T03:15:06.475Z,51.70
2018-04-28T03:16:08.292Z,51.60
2018-04-28T03:17:12.139Z,51.40
2018-04-28T03:18:13.142Z,51.30
2018-04-28T03:19:14.143Z,51.40
2018-04-28T03:20:15.148Z,51.40
2018-04-28T03:21:16.163Z,51.30
2018-04-28T03:22:18.115Z,52.10
2018-04-28T03:23:20.014Z,51.40
2018-04-28T03:24:22.845Z,51.40
2018-04-28T03:25:24.671Z,51.60
2018-04-28T03:26:26.491Z,51.70
2018-04-28T03:27:29.327Z,51.80
2018-04-28T03:28:31.078Z,52.20
2018-04-28T03:29:32.830Z,52.00
2018-04-28T03:30:35.390Z,51.90
2018-04-28T03:31:38.140Z,51.60
2018-04-28T03:32:40.917Z,51.60
2018-04-28T03:33:43.839Z,51.80
2018-04-28T03:34:44.866Z,51.50
2018-04-28T03:35:47.705Z,51.40
2018-04-28T03:36:49.690Z,51.80
2018-04-28T03:37:52.522Z,51.70
2018-04-28T03:38:57.344Z,51.80
2018-04-28T03:40:01.300Z,51.80
2018-04-28T03:41:09.306Z,52.00
2018-04-28T03:42:11.191Z,52.00
2018-04-28T03:43:15.008Z,51.80
2018-04-28T03:44:31.955Z,51.70
2018-04-28T03:45:35.538Z,51.70
2018-04-28T03:46:36.547Z,51.70
2018-04-28T03:47:54.322Z,51.60
2018-04-28T03:49:07.076Z,51.60
2018-04-28T03:50:08.907Z,51.50
2018-04-28T03:51:11.761Z,51.50
2018-04-28T03:52:20.586Z,51.70
2018-04-28T03:53:22.443Z,52.30
2018-04-28T03:54:25.306Z,51.90
2018-04-28T03:55:26.289Z,52.10
2018-04-28T03:56:29.139Z,52.40
2018-04-28T03:57:42.413Z,52.30
2018-04-28T03:58:55.716Z,52.20
2018-04-28T04:00:09.019Z,52.10
2018-04-28T04:01:22.386Z,52.00
2018-04-28T04:02:35.815Z,52.00
2018-04-28T04:05:10.697Z,52.70
2018-04-28T04:06:11.694Z,52.40
2018-04-28T04:07:26.281Z,52.10
2018-04-28T04:09:53.779Z,52.50
2018-04-28T04:10:56.602Z,52.20
2018-04-28T04:12:15.510Z,52.30
2018-04-28T04:15:08.835Z,52.20
2018-04-28T04:18:04.310Z,51.90
2018-04-28T04:19:26.468Z,51.90
2018-04-28T04:22:05.943Z,52.30
2018-04-28T04:24:50.359Z,51.90
2018-04-28T04:26:07.198Z,51.90
2018-04-28T04:28:38.315Z,52.00
2018-04-28T04:29:51.612Z,52.10
2018-04-28T04:31:00.800Z,52.30
2018-04-28T04:32:05.456Z,52.40
2018-04-28T04:33:30.368Z,52.40
2018-04-28T04:36:21.365Z,52.30
2018-04-28T04:37:40.033Z,51.90
2018-04-28T04:38:40.986Z,52.00
2018-04-28T04:39:44.859Z,52.10
2018-04-28T04:40:58.256Z,52.20
2018-04-28T04:42:08.410Z,53.40
2018-04-28T04:43:31.284Z,53.10
2018-04-28T04:45:55.103Z,53.10
2018-04-28T04:48:35.608Z,52.60
2018-04-28T04:51:02.083Z,52.80
2018-04-28T04:52:12.932Z,52.40
2018-04-28T04:53:15.594Z,52.80
2018-04-28T04:54:17.492Z,52.80
2018-04-28T04:56:58.511Z,53.00
2018-04-28T04:58:06.745Z,52.60
2018-04-28T04:59:16.756Z,52.60
2018-04-28T05:00:20.494Z,52.70
2018-04-28T05:01:27.680Z,52.70
2018-04-28T05:02:35.599Z,52.70
2018-04-28T05:05:23.050Z,52.90
2018-04-28T05:08:08.722Z,53.60
2018-04-28T05:09:22.008Z,53.50
2018-04-28T05:10:24.771Z,53.30
2018-04-28T05:11:33.806Z,53.30
2018-04-28T05:12:34.798Z,53.30
2018-04-28T05:13:46.629Z,53.30
2018-04-28T05:14:53.687Z,54.00
2018-04-28T05:16:01.987Z,54.00
2018-04-28T05:17:14.943Z,53.80
2018-04-28T05:18:28.174Z,53.80
2018-04-28T05:19:35.292Z,53.70
2018-04-28T05:20:54.078Z,53.40
2018-04-28T05:21:55.931Z,53.70
2018-04-28T05:22:59.591Z,53.30
2018-04-28T05:24:11.270Z,53.40
2018-04-28T05:25:23.322Z,53.10
2018-04-28T05:28:16.235Z,53.00
2018-04-28T05:29:32.188Z,53.00
2018-04-28T05:30:48.200Z,53.10
2018-04-28T05:32:06.367Z,53.30
2018-04-28T05:35:01.595Z,53.30
2018-04-28T05:36:09.679Z,53.50
2018-04-28T05:37:15.578Z,54.00
2018-04-28T05:38:26.703Z,53.70
2018-04-28T05:41:16.323Z,53.70
2018-04-28T05:42:29.692Z,53.30
2018-04-28T05:43:51.564Z,53.10
2018-04-28T05:45:04.922Z,52.60
2018-04-28T05:46:21.818Z,52.50
2018-04-28T05:47:45.470Z,52.30
2018-04-28T05:49:04.094Z,52.40
2018-04-28T05:50:13.850Z,52.40
2018-04-28T05:51:27.748Z,52.60
2018-04-28T05:52:35.843Z,52.60
2018-04-28T05:54:03.735Z,52.80
2018-04-28T05:55:31.443Z,52.70
2018-04-28T05:56:39.575Z,52.70
2018-04-28T05:57:47.670Z,52.40
2018-04-28T05:59:00.258Z,51.20
2018-04-28T06:01:56.428Z,52.20
2018-04-28T06:03:10.450Z,53.00
2018-04-28T06:04:24.459Z,52.10
2018-04-28T06:05:47.423Z,52.10
2018-04-28T06:08:17.031Z,51.90
2018-04-28T06:09:30.380Z,51.90
2018-04-28T06:10:58.322Z,50.80
2018-04-28T06:12:07.235Z,50.70
2018-04-28T06:13:24.004Z,51.20
2018-04-28T06:14:33.094Z,51.30
2018-04-28T06:15:59.190Z,51.50
2018-04-28T06:17:05.020Z,51.40
2018-04-28T06:18:27.078Z,51.90
2018-04-28T06:19:59.040Z,51.80
2018-04-28T06:21:00.203Z,51.50
2018-04-28T06:22:01.215Z,51.80
2018-04-28T06:23:02.979Z,51.90
2018-04-28T06:24:03.993Z,51.80
2018-04-28T06:25:05.015Z,51.90
2018-04-28T06:26:06.189Z,52.00
2018-04-28T06:27:07.024Z,51.80
2018-04-28T06:28:08.018Z,51.50
2018-04-28T06:29:09.014Z,51.40
2018-04-28T06:30:10.029Z,51.60
2018-04-28T06:31:11.776Z,51.70
2018-04-28T06:32:13.528Z,51.90
2018-04-28T06:33:15.266Z,52.10
2018-04-28T06:34:16.310Z,52.10
2018-04-28T06:35:17.315Z,52.00
2018-04-28T06:36:18.304Z,51.80
2018-04-28T06:37:19.312Z,51.70
2018-04-28T06:38:21.064Z,52.00
2018-04-28T06:39:22.073Z,52.00
2018-04-28T06:40:23.822Z,52.80
2018-04-28T06:41:25.574Z,52.10
2018-04-28T06:42:26.596Z,52.00
2018-04-28T06:43:27.604Z,52.00
2018-04-28T06:44:28.612Z,52.10
2018-04-28T06:45:29.645Z,52.10
2018-04-28T06:46:30.649Z,51.80
2018-04-28T06:47:31.655Z,51.90
2018-04-28T06:48:32.680Z,52.10
2018-04-28T06:49:33.686Z,51.80
2018-04-28T06:50:34.694Z,51.80
2018-04-28T06:51:35.709Z,51.80
2018-04-28T06:52:36.723Z,51.90
2018-04-28T06:53:37.747Z,52.00
2018-04-28T06:54:39.492Z,52.30
2018-04-28T06:55:40.531Z,52.20
2018-04-28T06:56:42.295Z,52.40
2018-04-28T06:57:43.298Z,52.40
2018-04-28T06:58:44.311Z,52.10
2018-04-28T06:59:45.331Z,52.10
2018-04-28T07:00:46.342Z,52.20
2018-04-28T07:01:47.346Z,52.50
2018-04-28T07:02:48.347Z,53.10
2018-04-28T07:03:49.365Z,52.70
2018-04-28T07:04:50.371Z,52.70
2018-04-28T07:05:51.387Z,52.40
2018-04-28T07:06:52.414Z,52.50
2018-04-28T07:07:53.431Z,53.10
2018-04-28T07:08:54.446Z,52.90
2018-04-28T07:09:55.445Z,52.50
2018-04-28T07:10:56.446Z,52.30
2018-04-28T07:11:57.458Z,52.90
2018-04-28T07:12:58.471Z,53.70
2018-04-28T07:13:59.491Z,54.50
2018-04-28T07:15:00.502Z,53.50
2018-04-28T07:16:01.532Z,53.10
2018-04-28T07:17:02.523Z,53.30
2018-04-28T07:18:03.531Z,53.10
2018-04-28T07:19:04.548Z,53.10
2018-04-28T07:20:05.550Z,53.00
2018-04-28T07:21:06.589Z,52.30
2018-04-28T07:22:07.568Z,52.50
2018-04-28T07:23:08.608Z,52.70
2018-04-28T07:24:09.619Z,52.70
2018-04-28T07:25:10.619Z,52.80
2018-04-28T07:26:12.366Z,52.80
2018-04-28T07:27:13.390Z,52.80
2018-04-28T07:28:14.375Z,53.00
2018-04-28T07:29:15.442Z,52.50
2018-04-28T07:30:16.411Z,52.60
2018-04-28T07:31:17.410Z,52.40
2018-04-28T07:32:18.415Z,52.10
2018-04-28T07:33:20.197Z,52.40
2018-04-28T07:34:21.230Z,52.40
2018-04-28T07:35:22.308Z,52.80
2018-04-28T07:36:23.282Z,54.10
2018-04-28T07:37:24.315Z,54.00
2018-04-28T07:38:26.078Z,53.10
2018-04-28T07:39:27.099Z,53.10
2018-04-28T07:40:28.094Z,53.00
2018-04-28T07:41:29.096Z,52.50
2018-04-28T07:42:30.957Z,52.40
2018-04-28T07:43:31.955Z,52.90
2018-04-28T07:44:33.701Z,52.20
2018-04-28T07:45:35.446Z,52.40
2018-04-28T07:46:37.202Z,52.60
2018-04-28T07:47:38.263Z,52.70
2018-04-28T07:48:39.224Z,52.70
2018-04-28T07:49:40.226Z,52.70
2018-04-28T07:50:41.226Z,52.70
2018-04-28T07:51:42.227Z,51.90
2018-04-28T07:52:43.254Z,52.20
2018-04-28T07:53:44.271Z,52.40
2018-04-28T07:54:45.290Z,51.80
2018-04-28T07:55:46.312Z,52.00
2018-04-28T07:56:47.322Z,51.90
2018-04-28T07:57:48.330Z,51.40
2018-04-28T07:58:49.361Z,51.40
2018-04-28T07:59:50.367Z,51.50
2018-04-28T08:00:51.377Z,51.50
2018-04-28T08:01:52.362Z,51.40
2018-04-28T08:02:54.102Z,51.30
2018-04-28T08:03:55.877Z,51.30
2018-04-28T08:04:57.614Z,51.00
2018-04-28T08:05:58.622Z,50.80
2018-04-28T08:06:59.659Z,50.80
2018-04-28T08:08:00.647Z,50.70
2018-04-28T08:09:01.667Z,50.80
2018-04-28T08:10:02.681Z,50.40
2018-04-28T08:11:03.687Z,50.40
2018-04-28T08:12:04.706Z,50.50
2018-04-28T08:13:05.700Z,50.20
2018-04-28T08:14:06.720Z,50.20
2018-04-28T08:15:07.729Z,50.20
2018-04-28T08:16:08.780Z,50.90
2018-04-28T08:17:09.779Z,50.20
2018-04-28T08:18:10.798Z,50.30
2018-04-28T08:19:12.542Z,50.30
2018-04-28T08:20:14.306Z,50.30
2018-04-28T08:21:15.334Z,50.30
2018-04-28T08:22:16.367Z,50.20
2018-04-28T08:23:17.373Z,50.30
2018-04-28T08:24:19.123Z,50.20
2018-04-28T08:25:20.247Z,50.20
2018-04-28T08:26:21.241Z,50.50
2018-04-28T08:27:22.238Z,50.40
2018-04-28T08:28:23.253Z,50.30
2018-04-28T08:29:24.278Z,50.40
2018-04-28T08:30:26.034Z,51.80
2018-04-28T08:31:27.053Z,51.70
2018-04-28T08:32:28.045Z,51.60
2018-04-28T08:33:29.067Z,51.40
2018-04-28T08:34:30.059Z,51.20
2018-04-28T08:35:31.074Z,51.00
2018-04-28T08:36:32.086Z,50.80
2018-04-28T08:37:33.122Z,50.40
2018-04-28T08:38:34.269Z,50.40
2018-04-28T08:39:36.023Z,50.20
2018-04-28T08:40:38.042Z,50.20
2018-04-28T08:41:40.107Z,51.20
2018-04-28T08:42:41.109Z,50.20
2018-04-28T08:43:42.094Z,50.30
2018-04-28T08:44:43.202Z,50.50
2018-04-28T08:45:44.408Z,50.50
2018-04-28T08:46:45.504Z,50.60
2018-04-28T08:47:46.519Z,50.70
2018-04-28T08:48:47.529Z,51.40
2018-04-28T08:49:48.520Z,51.10
2018-04-28T08:50:49.527Z,50.80
2018-04-28T08:51:51.282Z,50.50
2018-04-28T08:52:53.060Z,50.50
2018-04-28T08:53:54.250Z,50.60
2018-04-28T08:54:55.598Z,50.70
2018-04-28T08:55:57.346Z,51.00
2018-04-28T08:56:59.091Z,51.40
2018-04-28T08:58:00.850Z,51.20
2018-04-28T08:59:02.594Z,51.20
2018-04-28T09:00:15.844Z,51.20
2018-04-28T09:01:16.874Z,51.10
2018-04-28T09:02:17.895Z,50.70
2018-04-28T09:03:19.634Z,51.00
2018-04-28T09:04:20.635Z,51.00
2018-04-28T09:05:22.395Z,51.10
2018-04-28T09:06:23.411Z,51.10
2018-04-28T09:07:38.519Z,51.10
2018-04-28T09:08:39.530Z,51.20
2018-04-28T09:09:40.574Z,51.00
2018-04-28T09:10:41.631Z,50.90
2018-04-28T09:11:44.249Z,51.00
2018-04-28T09:12:45.322Z,51.00
2018-04-28T09:13:46.411Z,51.10
2018-04-28T09:14:47.481Z,51.20
2018-04-28T09:15:49.279Z,51.40
2018-04-28T09:16:50.342Z,51.40
2018-04-28T09:17:51.398Z,51.40
2018-04-28T09:18:52.487Z,51.00
2018-04-28T09:19:53.550Z,51.40
2018-04-28T09:20:55.945Z,51.40
2018-04-28T09:21:57.000Z,51.30
2018-04-28T09:22:58.062Z,51.30
2018-04-28T09:23:59.109Z,51.30
2018-04-28T09:25:00.224Z,51.30
2018-04-28T09:26:01.304Z,51.40
2018-04-28T09:27:02.384Z,51.70
2018-04-28T09:28:03.444Z,51.80
2018-04-28T09:29:05.249Z,51.30
2018-04-28T09:30:06.320Z,51.30
2018-04-28T09:31:07.415Z,51.30
2018-04-28T09:32:08.495Z,51.30
2018-04-28T09:33:09.568Z,51.40
2018-04-28T09:34:10.674Z,51.50
2018-04-28T09:35:11.736Z,52.00
2018-04-28T09:36:12.796Z,52.10
2018-04-28T09:37:14.611Z,52.30
2018-04-28T09:38:15.690Z,52.00
2018-04-28T09:39:16.739Z,52.20
2018-04-28T09:40:18.528Z,52.60
2018-04-28T09:41:19.607Z,52.70
2018-04-28T09:42:20.654Z,52.80
2018-04-28T09:43:21.718Z,52.50
2018-04-28T09:44:22.805Z,52.70
2018-04-28T09:45:24.619Z,54.20
2018-04-28T09:46:25.698Z,54.10
2018-04-28T09:47:27.499Z,54.00
2018-04-28T09:48:28.549Z,54.10
2018-04-28T09:49:29.597Z,54.60
2018-04-28T09:50:30.675Z,54.20
2018-04-28T09:51:31.748Z,54.20
2018-04-28T09:52:32.806Z,54.70
2018-04-28T09:53:34.596Z,54.40
2018-04-28T09:54:35.660Z,54.30
2018-04-28T09:55:36.714Z,54.20
2018-04-28T09:56:37.779Z,54.30
2018-04-28T09:57:38.906Z,55.10
2018-04-28T09:58:39.935Z,55.40
2018-04-28T09:59:40.995Z,54.60
2018-04-28T10:00:57.036Z,54.50
2018-04-28T10:01:58.648Z,55.10
2018-04-28T10:02:59.703Z,54.70
2018-04-28T10:04:00.770Z,54.50
2018-04-28T10:05:01.830Z,54.20
2018-04-28T10:06:02.957Z,53.80
2018-04-28T10:07:03.983Z,53.40
2018-04-28T10:08:05.036Z,53.90
2018-04-28T10:09:06.102Z,54.20
2018-04-28T10:10:07.163Z,53.70
2018-04-28T10:11:08.235Z,53.80
2018-04-28T10:12:10.087Z,54.40
2018-04-28T10:13:11.135Z,54.40
2018-04-28T10:14:12.949Z,53.80
2018-04-28T10:15:14.057Z,53.80
2018-04-28T10:16:15.154Z,53.60
2018-04-28T10:17:17.846Z,53.00
2018-04-28T10:18:19.715Z,53.00
2018-04-28T10:19:20.814Z,52.70
2018-04-28T10:20:23.071Z,52.20
2018-04-28T10:21:24.066Z,52.30
2018-04-28T10:22:25.123Z,52.30
2018-04-28T10:23:26.914Z,52.30
2018-04-28T10:24:27.962Z,52.20
2018-04-28T10:25:29.001Z,53.10
2018-04-28T10:26:30.079Z,53.00
2018-04-28T10:27:31.131Z,52.30
2018-04-28T10:28:32.175Z,52.70
2018-04-28T10:29:33.239Z,52.40
2018-04-28T10:30:34.307Z,52.60
2018-04-28T10:31:35.374Z,51.90
2018-04-28T10:32:36.426Z,52.10
2018-04-28T10:33:37.482Z,51.80
2018-04-28T10:34:38.529Z,51.80
2018-04-28T10:35:39.582Z,51.80
2018-04-28T10:36:40.635Z,51.80
2018-04-28T10:37:41.716Z,51.70
2018-04-28T10:38:43.499Z,51.70
2018-04-28T10:39:44.542Z,51.80
2018-04-28T10:40:45.602Z,51.80
2018-04-28T10:41:46.660Z,51.90
2018-04-28T10:42:47.711Z,51.90
2018-04-28T10:43:48.798Z,51.80
2018-04-28T10:44:49.870Z,51.90
2018-04-28T10:45:50.945Z,52.00
2018-04-28T10:46:52.012Z,52.00
2018-04-28T10:47:53.810Z,52.00
2018-04-28T10:48:54.870Z,52.00
2018-04-28T10:49:55.927Z,51.80
2018-04-28T10:50:57.708Z,52.10
2018-04-28T10:51:58.784Z,52.00
2018-04-28T10:52:59.850Z,52.70
2018-04-28T10:54:01.651Z,52.10
2018-04-28T10:55:02.719Z,52.10
2018-04-28T10:56:03.770Z,52.40
2018-04-28T10:57:04.844Z,51.70
2018-04-28T10:58:05.923Z,51.20
2018-04-28T10:59:07.735Z,51.10
2018-04-28T11:00:08.810Z,51.10
2018-04-28T11:01:09.861Z,51.70
2018-04-28T11:02:10.910Z,50.10
2018-04-28T11:03:17.847Z,50.00
2018-04-28T11:04:22.835Z,50.20
2018-04-28T11:05:23.892Z,50.20
2018-04-28T11:06:24.943Z,50.00
2018-04-28T11:07:26.015Z,50.20
2018-04-28T11:08:27.058Z,51.10
2018-04-28T11:09:28.118Z,50.20
2018-04-28T11:10:29.915Z,50.60
2018-04-28T11:11:30.994Z,50.60
2018-04-28T11:12:32.071Z,50.70
2018-04-28T11:13:33.178Z,50.70
2018-04-28T11:14:34.295Z,51.30
2018-04-28T11:15:35.339Z,52.20
2018-04-28T11:16:36.406Z,51.70
2018-04-28T11:17:37.447Z,51.40
2018-04-28T11:18:38.549Z,51.20
2018-04-28T11:19:39.686Z,51.10
2018-04-28T11:20:40.687Z,50.20
2018-04-28T11:21:42.485Z,50.40
2018-04-28T11:22:43.567Z,50.30
2018-04-28T11:23:44.647Z,50.30
2018-04-28T11:24:45.711Z,50.70
2018-04-28T11:25:46.864Z,50.80
2018-04-28T11:26:47.835Z,50.70
2018-04-28T11:27:48.902Z,50.80
2018-04-28T11:28:50.044Z,51.10
2018-04-28T11:29:51.105Z,51.10
2018-04-28T11:30:52.155Z,51.00
2018-04-28T11:31:53.222Z,51.00
2018-04-28T11:32:54.299Z,50.70
2018-04-28T11:33:56.067Z,50.40
2018-04-28T11:34:57.119Z,50.40
2018-04-28T11:35:58.175Z,50.40
2018-04-28T11:36:59.234Z,50.80
2018-04-28T11:38:00.286Z,50.80
2018-04-28T11:39:01.339Z,50.70
2018-04-28T11:40:02.398Z,50.50
2018-04-28T11:41:03.443Z,50.20
2018-04-28T11:42:04.499Z,50.60
2018-04-28T11:43:06.287Z,50.70
2018-04-28T11:44:07.336Z,50.70
2018-04-28T11:45:08.402Z,50.70
2018-04-28T11:46:09.463Z,51.10
2018-04-28T11:47:10.510Z,50.40
2018-04-28T11:48:11.548Z,50.20
2018-04-28T11:49:12.598Z,50.30
2018-04-28T11:50:13.667Z,50.40
2018-04-28T11:51:14.740Z,50.50
2018-04-28T11:52:15.806Z,50.90
2018-04-28T11:53:16.952Z,50.70
2018-04-28T11:54:17.949Z,50.90
2018-04-28T11:55:18.989Z,50.90
2018-04-28T11:56:20.047Z,50.70
2018-04-28T11:57:21.843Z,51.00
2018-04-28T11:58:22.894Z,50.80
2018-04-28T11:59:23.955Z,51.10
2018-04-28T12:00:25.027Z,51.00
2018-04-28T12:01:26.070Z,50.80
2018-04-28T12:02:27.124Z,50.30
2018-04-28T12:03:28.187Z,50.50
2018-04-28T12:04:29.968Z,50.40
2018-04-28T12:05:31.006Z,50.40
2018-04-28T12:06:32.076Z,50.30
2018-04-28T12:07:33.134Z,49.80
2018-04-28T12:08:34.949Z,49.70
2018-04-28T12:09:36.010Z,49.70
2018-04-28T12:10:37.063Z,49.80
2018-04-28T12:11:38.107Z,50.30
2018-04-28T12:12:39.178Z,49.30
2018-04-28T12:13:40.243Z,49.20
2018-04-28T12:14:41.319Z,49.00
2018-04-28T12:15:42.365Z,48.90
2018-04-28T12:16:43.399Z,49.10
2018-04-28T12:17:44.471Z,49.50
2018-04-28T12:18:46.256Z,49.10
2018-04-28T12:19:47.429Z,49.10
2018-04-28T12:20:48.412Z,49.10
2018-04-28T12:21:49.456Z,49.10
2018-04-28T12:22:50.507Z,49.10
2018-04-28T12:23:51.562Z,49.10
2018-04-28T12:24:52.607Z,49.10
2018-04-28T12:25:53.662Z,49.10
2018-04-28T12:26:54.724Z,49.10
2018-04-28T12:27:55.789Z,49.10
2018-04-28T12:28:56.838Z,49.10
2018-04-28T12:29:57.991Z,48.80
2018-04-28T12:30:58.957Z,48.80
2018-04-28T12:32:00.004Z,49.00
2018-04-28T12:33:01.062Z,48.70
2018-04-28T12:34:02.134Z,49.00
2018-04-28T12:35:03.183Z,49.20
2018-04-28T12:36:04.270Z,49.20
2018-04-28T12:37:06.040Z,49.00
2018-04-28T12:38:07.107Z,48.90
2018-04-28T12:39:08.148Z,48.50
2018-04-28T12:40:09.250Z,48.40
2018-04-28T12:41:10.303Z,48.30
2018-04-28T12:42:11.347Z,48.80
2018-04-28T12:43:12.407Z,48.20
2018-04-28T12:44:13.451Z,48.00
2018-04-28T12:45:14.499Z,48.00
2018-04-28T12:46:15.543Z,47.70
2018-04-28T12:47:16.596Z,47.60
2018-04-28T12:48:17.820Z,47.30
2018-04-28T12:49:19.643Z,47.00
2018-04-28T12:50:20.727Z,46.90
2018-04-28T12:51:22.539Z,47.30
2018-04-28T12:52:23.611Z,47.20
2018-04-28T12:53:25.422Z,47.00
2018-04-28T12:54:26.479Z,47.00
2018-04-28T12:55:28.290Z,46.70
2018-04-28T12:56:29.346Z,46.60
2018-04-28T12:57:30.439Z,46.60
2018-04-28T12:58:31.491Z,45.70
2018-04-28T12:59:32.539Z,45.80
2018-04-28T13:00:33.582Z,45.70
2018-04-28T13:01:34.643Z,46.00
2018-04-28T13:02:35.715Z,45.90
2018-04-28T13:03:36.859Z,45.60
2018-04-28T13:04:37.924Z,45.90
2018-04-28T13:05:39.088Z,45.90
2018-04-28T13:06:40.126Z,46.30
2018-04-28T13:07:41.242Z,45.70
2018-04-28T13:08:42.323Z,46.00
2018-04-28T13:09:43.375Z,45.40
2018-04-28T13:10:44.426Z,45.40
2018-04-28T13:11:46.226Z,45.60
2018-04-28T13:12:47.285Z,45.60
2018-04-28T13:13:48.337Z,45.40
2018-04-28T13:14:50.145Z,44.70
2018-04-28T13:15:51.190Z,44.70
2018-04-28T13:16:52.247Z,44.20
2018-04-28T13:17:54.055Z,44.10
2018-04-28T13:18:55.126Z,44.10
2018-04-28T13:19:56.175Z,44.10
2018-04-28T13:20:57.244Z,44.00
2018-04-28T13:21:58.316Z,43.60
2018-04-28T13:22:59.408Z,43.50
2018-04-28T13:24:00.476Z,43.40
2018-04-28T13:25:01.568Z,43.50
2018-04-28T13:26:02.635Z,43.80
2018-04-28T13:27:03.853Z,43.50
2018-04-28T13:28:04.778Z,43.00
2018-04-28T13:29:05.920Z,42.70
2018-04-28T13:30:06.914Z,42.70
2018-04-28T13:31:07.964Z,42.70
2018-04-28T13:32:09.037Z,42.70
2018-04-28T13:33:10.103Z,42.70
2018-04-28T13:34:11.156Z,42.10
2018-04-28T13:35:12.210Z,42.00
2018-04-28T13:36:13.287Z,42.20
2018-04-28T13:37:15.087Z,42.40
2018-04-28T13:38:16.143Z,42.50
2018-04-28T13:39:17.942Z,42.10
2018-04-28T13:40:19.091Z,42.00
2018-04-28T13:41:20.150Z,41.90
2018-04-28T13:42:21.215Z,42.50
2018-04-28T13:43:22.278Z,42.50
2018-04-28T13:44:23.346Z,41.50
2018-04-28T13:45:24.382Z,41.50
2018-04-28T13:46:25.438Z,41.40
2018-04-28T13:47:26.500Z,41.40
2018-04-28T13:48:27.557Z,41.20
2018-04-28T13:49:28.616Z,41.40
2018-04-28T13:50:30.408Z,41.20
2018-04-28T13:51:31.451Z,41.00
2018-04-28T13:52:32.503Z,40.80
2018-04-28T13:53:33.560Z,40.90
2018-04-28T13:54:35.355Z,40.50
2018-04-28T13:55:36.406Z,41.20
2018-04-28T13:56:37.459Z,40.70
2018-04-28T13:57:38.541Z,40.70
2018-04-28T13:58:39.612Z,40.50
2018-04-28T13:59:40.666Z,40.60
2018-04-28T14:00:41.718Z,41.00
2018-04-28T14:01:43.502Z,41.30
2018-04-28T14:02:44.542Z,41.20
2018-04-28T14:03:45.614Z,41.40
2018-04-28T14:04:46.671Z,41.40
2018-04-28T14:05:47.722Z,40.40
2018-04-28T14:06:48.771Z,40.40
2018-04-28T14:07:49.819Z,40.20
2018-04-28T14:08:50.891Z,40.00
2018-04-28T14:09:51.953Z,40.10
2018-04-28T14:10:53.033Z,40.00
2018-04-28T14:11:54.090Z,40.10
2018-04-28T14:12:55.148Z,40.40
2018-04-28T14:13:56.223Z,40.70
2018-04-28T14:14:57.300Z,40.80
2018-04-28T14:15:58.346Z,40.70
2018-04-28T14:17:00.171Z,40.60
2018-04-28T14:18:01.235Z,40.60
2018-04-28T14:19:02.311Z,40.70
2018-04-28T14:20:04.102Z,40.60
2018-04-28T14:21:05.184Z,40.70
2018-04-28T14:22:06.222Z,40.60
2018-04-28T14:23:08.022Z,41.60
2018-04-28T14:24:09.102Z,41.70
2018-04-28T14:25:10.189Z,41.30